Time;durP1;ratioP1;P1;durP2;ratioP2;P2;SDS_P1;SDS_P2;PMS_P1;PMS_P2;Temp;Humidity;BMP_temperature;BMP_pressure;BME280_temperature;BME280_humidity;BME280_pressure;Samples;Min_cycle;Max_cycle;Signal;HPM_P1;HPM_P2
2021/07/21 00:01:58;;;;;;;10.15;7.80;;;;;;;23.62;45.10;102355.13;5019893;28;20029;-83
2021/07/21 00:04:23;;;;;;;9.38;7.60;;;;;;;23.61;45.41;102350.78;5036370;28;20024;-83
2021/07/21 00:06:49;;;;;;;9.60;7.22;;;;;;;23.60;45.14;102349.03;5052606;28;20025;-83
2021/07/21 00:09:14;;;;;;;9.85;8.20;;;;;;;23.60;45.53;102347.28;5036526;28;20214;-82
2021/07/21 00:14:24;;;;;;;9.13;7.45;;;;;;;23.60;45.53;102349.03;5054107;28;20063;-83
2021/07/21 00:16:57;;;;;;;9.98;7.63;;;;;;;23.60;45.73;102344.66;5052535;28;20115;-83
2021/07/21 00:22:07;;;;;;;9.38;7.07;;;;;;;23.59;45.83;102345.53;5054283;28;20047;-82
2021/07/21 00:24:33;;;;;;;10.48;7.50;;;;;;;23.60;45.66;102343.75;5035828;28;20029;-83
2021/07/21 00:26:58;;;;;;;8.43;7.30;;;;;;;23.58;45.74;102341.16;5035829;28;20159;-83
2021/07/21 00:29:24;;;;;;;8.55;7.10;;;;;;;23.58;45.74;102343.81;5035785;28;20364;-82
2021/07/21 00:31:49;;;;;;;9.38;7.72;;;;;;;23.59;45.91;102353.41;5019163;28;20102;-83
2021/07/21 00:34:15;;;;;;;9.27;7.05;;;;;;;23.58;45.84;102348.16;5036287;28;20040;-82
2021/07/21 00:36:40;;;;;;;8.65;7.35;;;;;;;23.59;45.97;102349.91;5019644;28;20032;-82
2021/07/21 00:39:05;;;;;;;8.23;7.07;;;;;;;23.58;46.04;102351.69;5019121;28;20067;-82
2021/07/21 00:41:31;;;;;;;8.85;7.50;;;;;;;23.58;46.19;102349.06;5019188;28;20039;-82
2021/07/21 00:43:56;;;;;;;8.25;6.80;;;;;;;23.58;46.32;102351.69;5035506;28;20064;-83
2021/07/21 00:46:24;;;;;;;8.55;7.40;;;;;;;23.59;46.10;102344.66;5035522;28;20037;-83
2021/07/21 00:48:50;;;;;;;9.55;7.78;;;;;;;23.57;45.98;102349.94;5052339;28;20033;-82
2021/07/21 00:51:17;;;;;;;9.55;7.65;;;;;;;23.57;46.10;102354.31;5035494;28;20116;-82
2021/07/21 00:53:43;;;;;;;9.52;7.50;;;;;;;23.57;46.21;102349.94;5035430;28;20024;-82
2021/07/21 00:56:09;;;;;;;8.73;7.65;;;;;;;23.56;46.07;102355.19;5052178;28;20447;-82
2021/07/21 00:58:34;;;;;;;8.85;6.93;;;;;;;23.57;46.46;102347.28;5035437;28;20120;-83
2021/07/21 01:01:00;;;;;;;10.40;7.28;;;;;;;23.56;46.29;102352.56;5035874;28;20506;-81
2021/07/21 01:03:25;;;;;;;8.13;6.95;;;;;;;23.57;46.27;102352.56;5036016;28;20025;-81
2021/07/21 01:05:51;;;;;;;8.65;6.93;;;;;;;23.58;46.67;102345.53;5036415;28;20029;-81
2021/07/21 01:08:16;;;;;;;8.75;7.53;;;;;;;23.57;46.34;102342.03;5037467;28;20095;-81
2021/07/21 01:10:47;;;;;;;9.07;7.45;;;;;;;23.57;46.38;102349.06;5021084;28;20033;-83
2021/07/21 01:13:13;;;;;;;9.57;6.78;;;;;;;23.58;46.33;102356.03;5053446;28;20036;-82
2021/07/21 01:15:47;;;;;;;8.43;7.20;;;;;;;23.57;46.64;102349.94;5054263;28;20468;-82
2021/07/21 01:18:18;;;;;;;8.55;7.43;;;;;;;23.56;46.54;102348.19;5056077;28;20181;-80
2021/07/21 01:21:16;;;;;;;9.40;6.90;;;;;;;23.56;46.89;102348.19;5060312;28;20027;-81
2021/07/21 01:23:48;;;;;;;9.52;7.72;;;;;;;23.56;46.62;102342.94;5065020;28;20037;-82
2021/07/21 01:26:22;;;;;;;10.15;7.35;;;;;;;23.55;46.54;102349.06;5060569;28;20029;-82
2021/07/21 01:28:50;;;;;;;9.15;7.07;;;;;;;23.55;46.57;102348.22;5057680;28;20036;-82
2021/07/21 01:31:22;;;;;;;9.10;7.10;;;;;;;23.53;46.73;102348.22;5056184;28;20069;-83
2021/07/21 01:33:47;;;;;;;9.50;7.22;;;;;;;23.55;46.99;102348.22;5056365;28;20033;-82
2021/07/21 01:36:18;;;;;;;8.75;7.18;;;;;;;23.54;46.76;102347.34;5039516;28;20025;-83
2021/07/21 01:38:49;;;;;;;9.50;7.30;;;;;;;23.54;46.99;102349.06;5055882;28;20107;-83
2021/07/21 01:41:20;;;;;;;8.65;6.65;;;;;;;23.53;47.12;102348.22;5057015;28;20124;-83
2021/07/21 01:43:49;;;;;;;9.95;6.88;;;;;;;23.53;46.98;102347.34;5055579;28;20053;-83
2021/07/21 01:46:20;;;;;;;8.52;7.07;;;;;;;23.49;47.45;102348.28;5055448;28;20472;-83
2021/07/21 01:48:46;;;;;;;9.20;6.78;;;;;;;23.49;47.32;102341.25;5039774;28;20047;-83
2021/07/21 01:51:13;;;;;;;10.57;7.45;;;;;;;23.51;47.36;102343.88;5055906;28;20463;-83
2021/07/21 01:53:39;;;;;;;8.48;7.07;;;;;;;23.49;47.11;102345.63;5055654;28;20024;-83
2021/07/21 01:56:07;;;;;;;9.40;6.75;;;;;;;23.48;47.03;102344.78;5022458;28;20033;-83
2021/07/21 01:58:35;;;;;;;7.38;6.45;;;;;;;23.48;47.47;102350.03;5055443;28;20021;-83
2021/07/21 02:01:01;;;;;;;9.50;6.80;;;;;;;23.48;47.51;102351.78;5055336;28;20029;-82
2021/07/21 02:03:28;;;;;;;9.52;6.38;;;;;;;23.48;47.46;102352.66;5055087;28;20123;-83
2021/07/21 02:05:59;;;;;;;10.27;6.45;;;;;;;23.48;47.39;102344.78;5055070;28;20379;-83
2021/07/21 02:08:25;;;;;;;7.95;6.13;;;;;;;23.49;47.53;102349.13;5055538;28;20471;-85
2021/07/21 02:10:51;;;;;;;7.10;5.97;;;;;;;23.49;47.40;102346.50;5055045;28;20383;-84
2021/07/21 02:13:18;;;;;;;7.38;6.10;;;;;;;23.50;47.45;102352.66;5038698;28;20025;-84
2021/07/21 02:15:45;;;;;;;8.18;6.45;;;;;;;23.50;47.21;102350.88;5056035;28;20037;-85
2021/07/21 02:18:16;;;;;;;7.68;6.07;;;;;;;23.51;47.77;102349.13;5056139;28;20083;-85
2021/07/21 02:20:43;;;;;;;7.55;6.13;;;;;;;23.49;47.41;102349.13;5054922;28;20021;-85
2021/07/21 02:23:09;;;;;;;7.15;5.85;;;;;;;23.51;47.45;102354.38;5021875;28;20475;-84
2021/07/21 02:25:35;;;;;;;8.27;6.35;;;;;;;23.51;47.58;102335.97;5055009;28;20033;-84
2021/07/21 02:28:00;;;;;;;8.63;6.70;;;;;;;23.49;47.52;102341.25;5038246;28;20079;-85
2021/07/21 02:30:29;;;;;;;7.50;6.10;;;;;;;23.49;47.48;102336.00;5021618;28;20475;-84
2021/07/21 02:33:01;;;;;;;6.93;6.10;;;;;;;23.49;47.61;102335.13;5038139;28;20467;-85
2021/07/21 02:35:27;;;;;;;7.68;6.20;;;;;;;23.48;47.40;102339.53;5056177;28;20025;-85
2021/07/21 02:37:53;;;;;;;6.82;6.03;;;;;;;23.48;47.75;102344.78;5053671;28;20078;-84
2021/07/21 02:40:19;;;;;;;7.68;6.30;;;;;;;23.46;47.46;102333.41;5054433;28;20495;-85
2021/07/21 02:42:44;;;;;;;6.97;6.00;;;;;;;23.49;47.79;102340.38;5054549;28;20134;-85
2021/07/21 02:45:11;;;;;;;8.02;5.75;;;;;;;23.48;47.59;102336.03;5037902;28;20494;-87
2021/07/21 02:47:37;;;;;;;8.30;6.10;;;;;;;23.47;47.84;102335.13;5054640;28;20494;-86
2021/07/21 02:50:03;;;;;;;7.57;5.55;;;;;;;23.46;47.91;102333.41;5038757;28;20033;-86
2021/07/21 02:52:35;;;;;;;6.90;5.78;;;;;;;23.45;47.45;102334.28;5037869;28;20035;-86
2021/07/21 02:55:27;;;;;;;7.88;5.82;;;;;;;23.45;47.98;102339.53;5054220;28;20029;-86
2021/07/21 02:58:01;;;;;;;9.45;5.90;;;;;;;23.45;47.72;102344.78;5054075;28;20071;-86
2021/07/21 03:00:29;;;;;;;8.75;6.22;;;;;;;23.45;47.89;102346.56;5055266;28;20025;-86
2021/07/21 03:02:55;;;;;;;9.60;6.22;;;;;;;23.44;47.96;102350.09;5054057;28;20490;-86
2021/07/21 03:05:24;;;;;;;7.35;5.82;;;;;;;23.43;47.68;102349.22;5054085;28;20492;-86
2021/07/21 03:07:54;;;;;;;8.85;5.90;;;;;;;23.44;47.63;102342.19;5053980;28;20502;-87
2021/07/21 03:10:19;;;;;;;6.30;5.57;;;;;;;23.44;48.00;102339.56;5054145;28;20029;-87
2021/07/21 03:12:59;;;;;;;8.07;5.75;;;;;;;23.43;47.98;102346.59;5054191;28;20027;-87
2021/07/21 03:15:29;;;;;;;8.75;6.30;;;;;;;23.42;47.70;102348.31;5053811;28;20091;-87
2021/07/21 03:17:56;;;;;;;6.65;5.82;;;;;;;23.41;48.03;102353.63;5054232;28;20016;-86
2021/07/21 03:20:22;;;;;;;6.80;5.82;;;;;;;23.41;47.66;102357.09;5037181;28;20391;-87
2021/07/21 03:22:51;;;;;;;7.97;6.65;;;;;;;23.40;47.66;102357.13;5020829;28;20387;-86
2021/07/21 03:25:17;;;;;;;8.90;6.32;;;;;;;23.38;47.95;102358.88;5037584;28;20025;-86
2021/07/21 03:27:44;;;;;;;9.23;6.57;;;;;;;23.39;47.80;102355.38;5053841;28;20718;-84
2021/07/21 03:30:11;;;;;;;8.63;6.50;;;;;;;23.38;47.66;102357.13;5020647;28;20025;-84
2021/07/21 03:32:39;;;;;;;7.85;5.97;;;;;;;23.38;47.87;102359.75;5054459;28;20132;-83
2021/07/21 03:35:07;;;;;;;7.80;6.40;;;;;;;23.38;48.08;102367.63;5053472;28;20017;-85
2021/07/21 03:37:35;;;;;;;7.05;6.20;;;;;;;23.40;47.85;102362.38;5036898;28;20112;-85
2021/07/21 03:40:05;;;;;;;8.75;6.18;;;;;;;23.39;47.77;102364.13;5053597;28;20112;-84
2021/07/21 03:42:32;;;;;;;7.88;6.28;;;;;;;23.38;47.68;102367.63;5036647;28;20036;-85
2021/07/21 03:45:01;;;;;;;7.47;6.38;;;;;;;23.38;47.90;102361.50;5036984;28;20044;-84
2021/07/21 03:47:27;;;;;;;7.53;6.30;;;;;;;23.39;47.93;102372.00;5036996;28;20032;-84
2021/07/21 03:49:53;;;;;;;6.50;5.72;;;;;;;23.39;47.87;102368.53;5069569;28;20381;-84
2021/07/21 03:52:20;;;;;;;6.78;6.07;;;;;;;23.39;48.10;102360.63;5053330;28;20103;-84
2021/07/21 03:54:46;;;;;;;8.02;6.53;;;;;;;23.39;47.76;102368.53;5036691;28;20106;-84
2021/07/21 03:57:16;;;;;;;7.35;6.45;;;;;;;23.39;47.72;102373.78;5036485;28;20063;-84
2021/07/21 03:59:41;;;;;;;8.57;6.93;;;;;;;23.39;48.00;102371.16;5052863;28;20482;-85
2021/07/21 04:02:08;;;;;;;7.35;6.15;;;;;;;23.37;47.69;102368.53;5019815;28;20132;-85
2021/07/21 04:04:35;;;;;;;9.85;6.30;;;;;;;23.38;47.84;102362.38;5036556;28;20433;-85
2021/07/21 04:07:02;;;;;;;7.20;6.32;;;;;;;23.38;47.95;102367.63;5036423;28;20479;-85
2021/07/21 04:09:28;;;;;;;7.57;6.25;;;;;;;23.36;47.73;102361.50;5054011;28;20383;-84
2021/07/21 04:11:56;;;;;;;8.18;6.47;;;;;;;23.38;47.74;102364.13;5036330;28;20032;-85
2021/07/21 04:14:22;;;;;;;7.90;6.40;;;;;;;23.37;48.18;102358.03;5052511;28;20395;-84
2021/07/21 04:16:51;;;;;;;6.65;5.95;;;;;;;23.37;47.86;102365.03;5052836;28;20021;-84
2021/07/21 04:19:19;;;;;;;7.82;6.22;;;;;;;23.37;47.89;102362.41;5052733;28;20025;-85
2021/07/21 04:21:48;;;;;;;9.43;6.55;;;;;;;23.38;48.16;102367.63;5052696;28;20059;-85
2021/07/21 04:24:14;;;;;;;7.55;6.47;;;;;;;23.37;47.68;102365.91;5052638;28;20079;-85
2021/07/21 04:26:41;;;;;;;7.68;6.53;;;;;;;23.36;47.82;102369.41;5036124;28;20079;-85
2021/07/21 04:29:13;;;;;;;8.20;6.47;;;;;;;23.37;48.15;102362.41;5035927;28;20025;-85
2021/07/21 04:31:42;;;;;;;7.95;6.55;;;;;;;23.37;47.83;102367.66;5053777;28;20465;-84
2021/07/21 04:34:10;;;;;;;7.57;6.20;;;;;;;23.37;47.72;102362.41;5052553;28;20475;-81
2021/07/21 04:36:38;;;;;;;7.72;6.25;;;;;;;23.38;48.11;102364.13;5053705;28;20086;-79
2021/07/21 04:39:04;;;;;;;8.75;6.30;;;;;;;23.39;47.89;102361.50;5019912;28;20037;-80
2021/07/21 04:41:31;;;;;;;8.75;6.25;;;;;;;23.40;47.79;102365.00;5052560;28;20108;-78
2021/07/21 04:43:56;;;;;;;7.20;6.45;;;;;;;23.40;48.00;102365.00;5052447;28;20513;-78
2021/07/21 04:46:22;;;;;;;7.80;6.57;;;;;;;23.41;47.62;102364.13;5035586;28;20056;-78
2021/07/21 04:48:48;;;;;;;8.38;6.45;;;;;;;23.42;47.88;102365.84;5037061;28;20368;-78
2021/07/21 04:51:17;;;;;;;8.07;6.65;;;;;;;23.42;47.85;102360.59;5035683;28;20074;-78
2021/07/21 04:53:43;;;;;;;8.98;6.07;;;;;;;23.43;47.71;102362.34;5035584;28;20086;-88
2021/07/21 04:56:09;;;;;;;8.35;6.35;;;;;;;23.43;47.47;102364.97;5035829;28;20123;-89
2021/07/21 04:58:34;;;;;;;9.32;6.95;;;;;;;23.44;47.63;102363.22;5035759;28;20033;-87
2021/07/21 05:00:59;;;;;;;9.23;6.88;;;;;;;23.45;47.75;102367.56;5051650;28;20063;-88
2021/07/21 05:03:25;;;;;;;10.15;6.60;;;;;;;23.46;47.97;102371.97;5052623;28;20379;-88
2021/07/21 05:05:50;;;;;;;8.68;7.68;;;;;;;23.44;48.00;102374.59;5019124;28;20498;-84
2021/07/21 05:08:16;;;;;;;8.48;7.25;;;;;;;23.43;48.14;102375.50;5053327;28;20032;-84
2021/07/21 05:10:43;;;;;;;9.80;7.72;;;;;;;23.45;48.20;102378.94;5035448;28;20036;-84
2021/07/21 05:13:09;;;;;;;12.13;7.70;;;;;;;23.45;48.08;102386.81;5019784;28;20490;-84
2021/07/21 05:15:35;;;;;;;14.82;7.55;;;;;;;23.52;48.29;102382.41;5035448;28;20029;-85
2021/07/21 05:18:01;;;;;;;14.85;9.32;;;;;;;23.50;48.04;102379.78;5052002;28;20032;-81
2021/07/21 05:20:27;;;;;;;14.20;9.55;;;;;;;23.50;48.04;102387.66;5052104;28;20025;-82
2021/07/21 05:22:53;;;;;;;18.65;9.07;;;;;;;23.52;48.07;102387.66;5052019;28;20104;-79
2021/07/21 05:25:19;;;;;;;13.43;8.73;;;;;;;23.44;48.58;102400.88;5035386;28;20075;-80
2021/07/21 05:27:45;;;;;;;12.25;9.38;;;;;;;23.25;49.18;102401.91;5052129;28;20387;-82
2021/07/21 05:30:12;;;;;;;12.45;9.65;;;;;;;23.15;49.34;102399.38;5035727;28;20036;-83
2021/07/21 05:32:38;;;;;;;11.02;9.25;;;;;;;23.10;50.01;102405.53;5051743;28;20045;-82
2021/07/21 05:35:04;;;;;;;17.13;9.70;;;;;;;23.16;50.21;102400.22;5052036;28;20379;-84
2021/07/21 05:37:30;;;;;;;14.15;9.02;;;;;;;23.16;49.95;102408.13;5051695;28;20028;-85
2021/07/21 05:39:56;;;;;;;17.80;9.13;;;;;;;23.14;49.79;102412.50;5035254;28;20037;-82
2021/07/21 05:42:22;;;;;;;9.57;8.20;;;;;;;23.14;49.94;102404.63;5051593;28;20478;-85
2021/07/21 05:44:47;;;;;;;13.35;8.77;;;;;;;23.14;50.22;102408.13;5051914;28;20167;-81
2021/07/21 05:47:13;;;;;;;13.60;8.95;;;;;;;23.12;50.27;102409.03;5035120;28;20082;-84
2021/07/21 05:49:38;;;;;;;13.98;9.32;;;;;;;23.17;49.95;102413.38;5035613;28;20032;-81
2021/07/21 05:52:04;;;;;;;14.95;11.80;;;;;;;23.17;49.94;102418.63;5020000;28;20029;-80
2021/07/21 05:54:30;;;;;;;16.83;13.43;;;;;;;23.19;49.56;102416.84;5038569;28;20029;-80
2021/07/21 05:56:55;;;;;;;18.98;14.00;;;;;;;23.18;49.79;102411.59;5024826;28;20120;-82
2021/07/21 05:59:21;;;;;;;20.38;15.07;;;;;;;23.19;49.52;102414.22;5028128;28;20104;-81
2021/07/21 06:01:46;;;;;;;20.00;15.18;;;;;;;23.19;49.70;102414.22;5041598;28;20029;-81
2021/07/21 06:04:11;;;;;;;21.08;15.35;;;;;;;23.22;49.66;102415.94;5020733;28;20451;-81
2021/07/21 06:06:37;;;;;;;22.77;15.73;;;;;;;23.22;49.48;102418.56;5018913;28;20071;-81
2021/07/21 06:09:04;;;;;;;17.65;14.07;;;;;;;23.26;49.55;102427.31;5052501;28;20029;-80
2021/07/21 06:11:30;;;;;;;18.77;14.10;;;;;;;23.28;49.62;102420.25;5052335;28;20132;-83
2021/07/21 06:13:58;;;;;;;16.50;12.52;;;;;;;23.28;49.65;102425.50;5037976;28;20134;-83
2021/07/21 06:16:24;;;;;;;14.23;11.98;;;;;;;23.28;49.57;102430.75;5038880;28;20068;-82
2021/07/21 06:18:50;;;;;;;14.23;11.68;;;;;;;23.30;49.46;102434.25;5055065;28;20047;-82
2021/07/21 06:21:15;;;;;;;14.65;11.32;;;;;;;23.30;49.74;102431.63;5054948;28;20032;-82
2021/07/21 06:23:41;;;;;;;17.25;11.45;;;;;;;23.28;49.41;102436.91;5021506;28;20029;-82
2021/07/21 06:26:06;;;;;;;13.75;10.77;;;;;;;23.31;49.65;102438.63;5021589;28;20087;-83
2021/07/21 06:28:32;;;;;;;14.30;10.43;;;;;;;23.32;49.35;102440.38;5021744;28;20064;-82
2021/07/21 06:30:57;;;;;;;14.40;10.13;;;;;;;23.34;49.20;102441.22;5037994;28;20044;-83
2021/07/21 06:33:22;;;;;;;14.20;9.57;;;;;;;23.34;49.15;102438.59;5038022;28;20032;-82
2021/07/21 06:35:49;;;;;;;14.90;10.00;;;;;;;23.35;49.05;102435.97;5021601;28;20036;-83
2021/07/21 06:38:15;;;;;;;14.15;10.00;;;;;;;23.36;49.26;102437.69;5054518;28;20028;-83
2021/07/21 06:40:41;;;;;;;14.73;10.15;;;;;;;23.38;49.08;102448.19;5054449;28;20119;-82
2021/07/21 06:43:07;;;;;;;13.32;9.60;;;;;;;23.39;48.71;102452.59;5037926;28;20056;-87
2021/07/21 06:45:32;;;;;;;12.95;9.25;;;;;;;23.39;48.79;102447.34;5054628;28;20020;-87
2021/07/21 06:47:58;;;;;;;11.95;9.85;;;;;;;23.41;48.62;102454.31;5054612;28;20040;-88
2021/07/21 06:50:23;;;;;;;15.00;9.25;;;;;;;23.42;48.59;102460.44;5038412;28;20029;-86
2021/07/21 06:52:49;;;;;;;12.52;9.50;;;;;;;23.39;48.02;102463.09;5037928;28;20029;-87
2021/07/21 06:55:15;;;;;;;13.27;8.68;;;;;;;23.41;47.84;102463.97;5037901;28;20036;-87
2021/07/21 06:57:41;;;;;;;12.80;9.02;;;;;;;23.39;47.18;102456.06;5038070;28;20379;-87
2021/07/21 07:00:07;;;;;;;12.95;8.82;;;;;;;23.40;47.04;102457.81;5054864;28;20029;-87
2021/07/21 07:02:33;;;;;;;15.07;8.82;;;;;;;23.43;47.29;102464.81;5054773;28;20025;-87
2021/07/21 07:04:59;;;;;;;12.00;8.63;;;;;;;23.45;47.55;102465.66;5054277;28;20467;-87
2021/07/21 07:07:25;;;;;;;14.20;8.75;;;;;;;23.45;47.31;102463.03;5037611;28;20040;-87
2021/07/21 07:09:50;;;;;;;15.18;8.57;;;;;;;23.48;47.44;102468.25;5038098;28;20028;-87
2021/07/21 07:12:16;;;;;;;13.65;8.93;;;;;;;23.50;47.42;102469.13;5038161;28;20040;-86
2021/07/21 07:14:41;;;;;;;13.55;8.80;;;;;;;23.52;47.09;102467.34;5037424;28;20479;-87
2021/07/21 07:17:08;;;;;;;13.82;8.60;;;;;;;23.54;46.97;102470.84;5037740;28;20021;-86
2021/07/21 07:19:33;;;;;;;9.45;7.93;;;;;;;23.58;46.80;102475.19;5021507;28;20029;-87
2021/07/21 07:22:01;;;;;;;11.00;7.50;;;;;;;23.60;46.32;102477.78;5037250;28;20547;-87
2021/07/21 07:24:28;;;;;;;11.20;7.90;;;;;;;23.60;45.82;102469.91;5036704;28;20033;-87
2021/07/21 07:26:58;;;;;;;10.35;8.20;;;;;;;23.63;45.97;102475.16;5053626;28;20031;-86
2021/07/21 07:29:24;;;;;;;11.02;8.15;;;;;;;23.65;45.63;102481.25;5054066;28;20025;-86
2021/07/21 07:31:50;;;;;;;10.95;7.40;;;;;;;23.66;45.41;102477.72;5055204;28;20048;-87
2021/07/21 07:34:15;;;;;;;9.90;7.28;;;;;;;23.67;44.62;102482.13;5053716;28;20037;-88
2021/07/21 07:36:41;;;;;;;9.80;7.18;;;;;;;23.68;45.24;102483.84;5053709;28;20107;-90
2021/07/21 07:39:09;;;;;;;10.23;7.57;;;;;;;23.71;45.09;102485.56;5037289;28;20033;-87
2021/07/21 07:41:36;;;;;;;10.38;7.30;;;;;;;23.73;45.52;102487.28;5021140;28;20086;-85
2021/07/21 07:44:03;;;;;;;9.20;7.20;;;;;;;23.75;45.18;102476.78;5053200;28;20116;-87
2021/07/21 07:46:28;;;;;;;12.27;7.15;;;;;;;23.75;45.11;102480.31;5036891;28;20075;-88
2021/07/21 07:48:56;;;;;;;10.38;7.13;;;;;;;23.80;45.05;102478.53;5037402;28;20036;-85
2021/07/21 07:51:22;;;;;;;8.93;6.57;;;;;;;23.82;44.95;102478.47;5053462;28;20037;-86
2021/07/21 07:53:47;;;;;;;10.95;6.95;;;;;;;23.85;45.22;102480.25;5037078;28;20021;-86
2021/07/21 07:56:13;;;;;;;9.25;6.70;;;;;;;23.84;44.68;102478.47;5036674;28;20037;-87
2021/07/21 07:58:38;;;;;;;8.85;6.80;;;;;;;23.85;44.83;102483.72;5053361;28;20021;-86
2021/07/21 08:01:04;;;;;;;9.32;6.75;;;;;;;23.87;44.86;102483.72;5020049;28;20056;-86
2021/07/21 08:03:30;;;;;;;7.80;6.70;;;;;;;23.86;44.50;102480.19;5019897;28;20031;-84
2021/07/21 08:05:59;;;;;;;9.82;7.07;;;;;;;23.87;44.25;102481.97;5053020;28;20017;-85
2021/07/21 08:08:27;;;;;;;10.75;7.28;;;;;;;23.87;44.81;102488.97;5036870;28;20089;-86
2021/07/21 08:10:53;;;;;;;9.77;6.95;;;;;;;23.88;44.24;102475.81;5070462;28;20486;-86
2021/07/21 08:13:20;;;;;;;10.05;6.68;;;;;;;23.88;44.30;102473.16;5053419;28;20036;-87
2021/07/21 08:15:46;;;;;;;9.43;6.65;;;;;;;23.89;43.89;102482.81;5036479;28;20116;-87
2021/07/21 08:18:12;;;;;;;10.20;6.88;;;;;;;23.91;44.00;102473.16;5052941;28;20017;-86
2021/07/21 08:20:38;;;;;;;9.02;6.30;;;;;;;23.93;43.97;102479.28;5020905;28;20364;-86
2021/07/21 08:23:04;;;;;;;9.52;6.68;;;;;;;23.90;43.99;102473.16;5053791;28;20029;-86
2021/07/21 08:25:30;;;;;;;9.15;6.65;;;;;;;23.92;43.63;102481.91;5055523;28;20418;-85
2021/07/21 08:27:55;;;;;;;7.85;6.15;;;;;;;23.91;43.48;102475.78;5023072;28;20029;-87
2021/07/21 08:30:21;;;;;;;9.15;6.57;;;;;;;23.88;43.11;102481.06;5041865;28;20387;-84
2021/07/21 08:32:49;;;;;;;8.30;6.53;;;;;;;23.88;43.25;102481.06;5043095;28;20049;-85
2021/07/21 08:35:23;;;;;;;8.30;6.43;;;;;;;23.90;43.07;102481.91;5060827;28;20037;-84
2021/07/21 08:37:49;;;;;;;8.52;6.63;;;;;;;23.90;42.94;102478.41;5060444;28;20021;-84
2021/07/21 08:40:16;;;;;;;9.48;6.65;;;;;;;23.90;42.96;102479.28;5058275;28;20028;-85
2021/07/21 08:42:41;;;;;;;10.65;6.63;;;;;;;23.89;42.67;102477.56;5040644;28;20031;-84
2021/07/21 08:45:09;;;;;;;11.23;7.00;;;;;;;23.89;42.75;102484.53;5039295;28;20033;-83
2021/07/21 08:47:34;;;;;;;12.77;7.22;;;;;;;23.88;42.49;102478.44;5038579;28;20033;-90
2021/07/21 08:50:02;;;;;;;10.40;6.70;;;;;;;23.89;42.90;102476.66;5038689;28;20539;-85
2021/07/21 08:52:28;;;;;;;10.98;6.78;;;;;;;23.92;42.63;102474.03;5054325;28;20116;-85
2021/07/21 08:54:58;;;;;;;11.55;6.72;;;;;;;23.93;42.81;102479.28;5069766;28;20428;-85
2021/07/21 08:57:25;;;;;;;9.20;6.60;;;;;;;23.95;42.64;102481.88;5037124;28;20032;-85
2021/07/21 08:59:51;;;;;;;10.32;6.65;;;;;;;23.96;42.52;102481.00;5053875;28;20057;-86
2021/07/21 09:02:17;;;;;;;13.32;7.30;;;;;;;23.92;42.10;102476.66;5019907;28;20033;-85
2021/07/21 09:04:42;;;;;;;13.35;6.80;;;;;;;23.87;41.12;102488.97;5036553;28;20029;-86
2021/07/21 09:07:09;;;;;;;11.57;7.15;;;;;;;23.83;41.85;102489.91;5036297;28;20411;-85
2021/07/21 09:09:35;;;;;;;11.90;6.82;;;;;;;23.90;42.19;102488.94;5052674;28;20475;-85
2021/07/21 09:12:01;;;;;;;11.63;7.30;;;;;;;23.93;41.83;102489.78;5035746;28;20029;-87
2021/07/21 09:14:28;;;;;;;9.13;6.97;;;;;;;23.95;41.91;102487.13;5019266;28;20032;-86
2021/07/21 09:17:13;;;;;;;11.45;7.22;;;;;;;23.94;42.19;102478.38;5052357;28;20053;-86
2021/07/21 09:19:44;;;;;;;8.82;6.60;;;;;;;23.94;41.39;102485.41;5053548;28;20103;-86
2021/07/21 09:22:20;;;;;;;9.07;7.20;;;;;;;23.95;42.08;102485.38;5052047;28;20033;-86
2021/07/21 09:25:16;;;;;;;9.57;7.00;;;;;;;23.99;41.76;102486.22;5052321;28;20112;-86
2021/07/21 09:27:47;;;;;;;8.70;7.03;;;;;;;24.01;41.89;102489.69;5047648;28;20039;-85
2021/07/21 09:30:19;;;;;;;8.05;6.90;;;;;;;23.92;41.23;102492.44;5052753;28;20025;-86
2021/07/21 09:33:00;;;;;;;9.10;7.22;;;;;;;23.92;41.56;102493.28;5052422;28;20083;-86
2021/07/21 09:35:29;;;;;;;10.32;7.80;;;;;;;23.94;41.18;102493.28;5052039;28;20063;-86
2021/07/21 09:38:00;;;;;;;11.65;7.60;;;;;;;23.93;41.03;102494.16;5052413;28;20460;-84
2021/07/21 09:40:26;;;;;;;10.23;6.80;;;;;;;23.96;41.23;102491.50;5039249;28;20097;-85
2021/07/21 09:42:52;;;;;;;11.48;7.85;;;;;;;23.92;41.51;102493.28;5055226;28;20025;-85
2021/07/21 09:45:19;;;;;;;9.80;7.20;;;;;;;23.95;41.42;102493.28;5053448;28;20547;-84
2021/07/21 09:47:55;;;;;;;10.82;7.75;;;;;;;23.98;41.65;102487.97;5037419;28;20425;-83
2021/07/21 09:50:30;;;;;;;11.02;7.53;;;;;;;23.98;41.58;102487.97;5056054;28;20020;-83
2021/07/21 09:53:06;;;;;;;10.43;7.38;;;;;;;24.01;41.70;102492.31;5039034;28;20029;-81
2021/07/21 09:55:35;;;;;;;10.43;7.07;;;;;;;24.07;41.66;102487.00;5039499;28;20060;-86
2021/07/21 09:58:09;;;;;;;10.80;7.28;;;;;;;24.07;41.75;102480.88;5055360;28;20013;-83
2021/07/21 10:00:39;;;;;;;10.32;7.68;;;;;;;24.06;41.86;102482.63;5055356;28;20031;-84
2021/07/21 10:03:07;;;;;;;11.93;8.13;;;;;;;24.03;41.60;102480.91;5055426;28;20475;-84
2021/07/21 10:05:32;;;;;;;9.80;8.15;;;;;;;24.05;41.82;102482.66;5055661;28;20021;-83
2021/07/21 10:08:02;;;;;;;10.30;7.80;;;;;;;24.05;41.74;102474.75;5038458;28;20056;-80
2021/07/21 10:10:30;;;;;;;10.25;7.68;;;;;;;24.06;41.65;102484.38;5039203;28;20063;-79
2021/07/21 10:13:08;;;;;;;10.73;7.60;;;;;;;24.06;41.66;102487.00;5055246;28;20028;-79
2021/07/21 10:15:34;;;;;;;11.30;7.20;;;;;;;24.07;41.67;102484.38;5054990;28;20033;-80
2021/07/21 10:18:14;;;;;;;10.80;8.32;;;;;;;24.03;41.13;102486.16;5022022;28;20116;-79
2021/07/21 10:20:41;;;;;;;12.88;7.68;;;;;;;24.01;41.54;102484.44;5054927;28;20029;-79
2021/07/21 10:23:08;;;;;;;12.07;8.63;;;;;;;24.00;41.40;102483.56;5038273;28;20036;-80
2021/07/21 10:25:36;;;;;;;11.50;8.23;;;;;;;24.00;41.11;102483.56;5038246;28;20057;-79
2021/07/21 10:28:02;;;;;;;11.60;8.20;;;;;;;23.98;40.86;102484.47;5038405;28;20079;-80
2021/07/21 10:30:33;;;;;;;10.32;7.90;;;;;;;24.00;41.21;102491.47;5021911;28;20025;-79
2021/07/21 10:33:00;;;;;;;11.82;8.13;;;;;;;24.01;40.87;102494.94;5054460;28;20048;-79
2021/07/21 10:35:27;;;;;;;12.77;8.02;;;;;;;24.02;40.87;102486.19;5038132;28;20037;-78
2021/07/21 10:37:54;;;;;;;10.50;8.10;;;;;;;24.05;41.11;102482.66;5054505;28;20440;-78
2021/07/21 10:40:21;;;;;;;10.30;7.53;;;;;;;24.05;40.70;102480.88;5054482;28;20033;-78
2021/07/21 10:42:51;;;;;;;10.07;7.63;;;;;;;24.07;40.94;102486.13;5055675;28;20380;-78
2021/07/21 10:45:21;;;;;;;11.18;7.55;;;;;;;24.07;41.36;102480.88;5054244;28;20036;-78
2021/07/21 10:47:53;;;;;;;11.27;8.77;;;;;;;24.04;40.99;102481.78;5054446;28;20078;-78
2021/07/21 10:59:21;;;;;;;11.38;8.15;;;;;;;23.98;40.51;102481.84;5054482;28;20040;-79
2021/07/21 11:01:52;;;;;;;10.82;8.18;;;;;;;23.98;40.46;102476.59;5054103;28;20439;-78
2021/07/21 11:04:21;;;;;;;11.05;9.18;;;;;;;23.99;40.47;102480.94;5054196;28;20425;-78
2021/07/21 11:06:50;;;;;;;10.98;8.63;;;;;;;23.99;40.04;102484.44;5021598;28;20106;-78
2021/07/21 11:09:21;;;;;;;11.77;9.00;;;;;;;23.94;39.40;102481.00;5055135;28;20028;-78
2021/07/21 11:11:50;;;;;;;12.13;9.10;;;;;;;23.94;39.67;102483.63;5054010;28;20083;-77
2021/07/21 11:14:24;;;;;;;10.50;8.23;;;;;;;23.94;39.71;102472.25;5037417;28;20052;-78
2021/07/21 11:16:55;;;;;;;10.85;8.20;;;;;;;23.96;39.91;102473.97;5053750;28;20029;-78
2021/07/21 11:19:41;;;;;;;11.00;7.75;;;;;;;23.99;40.09;102467.81;5053850;28;20017;-78
2021/07/21 11:22:09;;;;;;;11.40;7.90;;;;;;;24.02;39.87;102484.44;5053603;28;20102;-78
2021/07/21 11:24:59;;;;;;;11.15;8.32;;;;;;;24.01;39.68;102473.91;5053633;28;20574;-78
2021/07/21 11:27:41;;;;;;;10.80;8.13;;;;;;;24.03;39.84;102472.16;5054834;28;20053;-79
2021/07/21 11:30:41;;;;;;;11.30;8.18;;;;;;;24.05;39.60;102472.13;5053766;28;20371;-80
2021/07/21 11:33:49;;;;;;;13.43;8.15;;;;;;;24.02;39.63;102475.69;5052919;28;20045;-81
2021/07/21 11:36:40;;;;;;;8.73;7.30;;;;;;;24.03;39.84;102478.25;5053785;28;20475;-80
2021/07/21 11:39:29;;;;;;;9.25;8.00;;;;;;;24.05;39.70;102474.75;5053534;28;20029;-79
2021/07/21 11:41:54;;;;;;;13.88;7.93;;;;;;;24.06;39.83;102476.50;5053183;28;20032;-78